Time;durP1;ratioP1;P1;durP2;ratioP2;P2;SDS_P1;SDS_P2;PMS_P1;PMS_P2;Temp;Humidity;BMP_temperature;BMP_pressure;BME280_temperature;BME280_humidity;BME280_pressure;Samples;Min_cycle;Max_cycle;Signal;HPM_P1;HPM_P2
2022/02/27 00:01:12;;;;;;;4.95;1.67;;;;;;;4.41;56.36;101728.30;1775296;79;21570;-62
2022/02/27 00:03:41;;;;;;;3.55;1.77;;;;;;;4.41;56.52;101731.02;1777648;79;21093;-61
2022/02/27 00:06:28;;;;;;;3.90;1.60;;;;;;;4.38;56.61;101731.76;1768573;81;21032;-63
2022/02/27 00:08:58;;;;;;;5.25;1.80;;;;;;;4.37;56.83;101736.81;1787708;79;21945;-62
2022/02/27 00:11:26;;;;;;;6.97;1.98;;;;;;;4.33;57.06;101732.63;1797570;78;21046;-61
2022/02/27 00:13:56;;;;;;;5.72;2.10;;;;;;;4.32;57.10;101729.55;1776816;79;21070;-62
2022/02/27 00:16:42;;;;;;;5.33;1.90;;;;;;;4.29;57.12;101729.80;1768692;79;21518;-62
2022/02/27 00:19:29;;;;;;;3.47;1.60;;;;;;;4.26;57.16;101737.69;1777510;79;21054;-62
2022/02/27 00:22:18;;;;;;;5.87;2.10;;;;;;;4.25;57.26;101733.74;1768769;80;21182;-61
2022/02/27 00:25:06;;;;;;;4.12;1.87;;;;;;;4.20;57.48;101731.89;1789394;78;21157;-62
2022/02/27 00:27:36;;;;;;;4.40;1.80;;;;;;;4.17;57.60;101734.86;1782599;78;21046;-63
2022/02/27 00:30:07;;;;;;;3.00;1.50;;;;;;;4.15;57.69;101734.98;1790661;78;21055;-61
2022/02/27 00:32:54;;;;;;;4.00;1.62;;;;;;;4.14;57.76;101734.12;1785654;78;21046;-61
2022/02/27 00:35:23;;;;;;;4.03;1.62;;;;;;;4.10;57.92;101731.28;1784374;78;21054;-61
2022/02/27 00:37:51;;;;;;;6.05;1.90;;;;;;;4.08;57.99;101733.25;1800137;79;21138;-61
2022/02/27 00:40:21;;;;;;;5.33;1.92;;;;;;;4.06;58.09;101735.23;1803725;78;21067;-60
2022/02/27 00:42:50;;;;;;;5.03;1.85;;;;;;;4.05;58.14;101730.79;1785577;78;21153;-62
2022/02/27 00:45:21;;;;;;;5.03;2.00;;;;;;;4.06;58.17;101729.80;1805832;78;21034;-62
2022/02/27 00:47:49;;;;;;;5.55;2.12;;;;;;;4.04;58.20;101730.91;1774394;79;21010;-63
2022/02/27 00:50:18;;;;;;;5.45;1.90;;;;;;;4.00;58.29;101728.94;1781056;80;21484;-62
2022/02/27 00:52:46;;;;;;;9.08;2.25;;;;;;;3.98;58.35;101735.47;1779839;79;21122;-63
2022/02/27 00:55:14;;;;;;;5.10;1.77;;;;;;;3.96;58.41;101726.10;1778843;79;21049;-61
2022/02/27 00:57:43;;;;;;;3.87;1.52;;;;;;;3.93;58.49;101733.12;1785000;80;21463;-62
2022/02/27 01:00:13;;;;;;;5.42;1.80;;;;;;;3.90;58.58;101727.05;1770731;79;21090;-61
2022/02/27 01:02:42;;;;;;;8.13;1.90;;;;;;;3.89;58.70;101731.61;1777010;80;21149;-62
2022/02/27 01:05:11;;;;;;;4.67;2.08;;;;;;;3.84;58.77;101727.05;1785547;79;21086;-61
2022/02/27 01:07:42;;;;;;;4.42;1.72;;;;;;;3.81;58.85;101731.36;1776780;79;21521;-61
2022/02/27 01:10:11;;;;;;;5.78;2.00;;;;;;;3.80;58.97;101732.34;1780165;79;21109;-60
2022/02/27 01:12:40;;;;;;;5.62;1.95;;;;;;;3.78;59.06;101731.60;1777901;79;21101;-61
2022/02/27 01:15:09;;;;;;;5.25;2.00;;;;;;;3.75;59.15;101739.48;1777736;79;21475;-62
2022/02/27 01:17:38;;;;;;;7.05;2.00;;;;;;;3.71;59.27;101731.22;1779048;79;21034;-62
2022/02/27 01:20:09;;;;;;;4.17;2.00;;;;;;;3.70;59.43;101729.50;1762588;80;21519;-62
2022/02/27 01:22:37;;;;;;;4.95;2.02;;;;;;;3.68;59.48;101726.05;1791486;78;21216;-61
2022/02/27 01:25:07;;;;;;;4.83;1.67;;;;;;;3.67;59.58;101727.52;1796794;79;21117;-61
2022/02/27 01:27:36;;;;;;;8.15;1.90;;;;;;;3.66;59.67;101732.57;1778573;79;21104;-62
2022/02/27 01:30:07;;;;;;;4.80;1.92;;;;;;;3.62;59.79;101724.31;1782133;80;21021;-62
2022/02/27 01:32:37;;;;;;;7.60;2.00;;;;;;;3.60;59.89;101724.92;1763336;80;21443;-62
2022/02/27 01:35:07;;;;;;;6.90;2.10;;;;;;;3.56;59.99;101719.38;1791136;79;21494;-61
2022/02/27 01:37:36;;;;;;;6.65;2.05;;;;;;;3.52;60.16;101720.59;1790254;80;21077;-61
2022/02/27 01:40:07;;;;;;;4.72;1.98;;;;;;;3.50;60.23;101720.22;1804370;78;21087;-62
2022/02/27 01:42:38;;;;;;;4.03;2.02;;;;;;;3.48;60.34;101718.13;1776971;79;21020;-62
2022/02/27 01:45:07;;;;;;;7.72;2.42;;;;;;;3.47;60.46;101712.33;1791346;78;21062;-62
2022/02/27 01:47:36;;;;;;;5.95;1.98;;;;;;;3.46;60.51;101716.52;1786614;78;21086;-62
2022/02/27 01:50:06;;;;;;;4.60;1.87;;;;;;;3.42;60.62;101713.19;1787404;78;21176;-61
2022/02/27 01:52:35;;;;;;;6.25;2.30;;;;;;;3.38;60.75;101712.19;1796165;78;21074;-62
2022/02/27 01:55:05;;;;;;;7.62;2.12;;;;;;;3.32;60.90;101710.81;1790831;78;21074;-62
2022/02/27 01:57:33;;;;;;;4.65;2.10;;;;;;;3.32;61.06;101712.17;1800594;79;21109;-62
2022/02/27 02:00:07;;;;;;;6.05;2.20;;;;;;;3.30;61.16;101711.43;1784892;78;21196;-60
2022/02/27 02:02:38;;;;;;;5.87;2.12;;;;;;;3.30;61.23;101711.92;1781735;78;21093;-61
2022/02/27 02:05:07;;;;;;;4.65;2.10;;;;;;;3.29;61.33;101716.47;1790231;78;21058;-61
2022/02/27 02:07:37;;;;;;;6.92;2.35;;;;;;;3.27;61.45;101706.25;1782750;79;21181;-61
2022/02/27 02:10:06;;;;;;;7.28;2.67;;;;;;;3.23;61.55;101707.44;1773168;79;21095;-61
2022/02/27 02:12:36;;;;;;;7.17;2.77;;;;;;;3.22;61.71;101707.06;1789408;79;21494;-63
2022/02/27 02:15:08;;;;;;;6.25;2.30;;;;;;;3.21;61.77;101705.83;1794269;79;21180;-61
2022/02/27 02:17:36;;;;;;;5.60;2.62;;;;;;;3.19;61.83;101707.30;1789734;78;21141;-62
2022/02/27 02:20:07;;;;;;;5.80;2.77;;;;;;;3.17;61.87;101707.91;1768575;79;21083;-61
2022/02/27 02:22:38;;;;;;;6.55;2.77;;;;;;;3.14;61.91;101708.14;1774099;79;21194;-62
2022/02/27 02:25:08;;;;;;;8.55;3.55;;;;;;;3.10;62.00;101706.16;1772441;79;21284;-61
2022/02/27 02:27:38;;;;;;;10.70;3.60;;;;;;;3.06;62.08;101716.86;1761850;80;21102;-61
2022/02/27 02:30:10;;;;;;;8.43;3.30;;;;;;;3.00;62.26;101713.26;1789109;79;21005;-61
2022/02/27 02:32:57;;;;;;;10.63;4.28;;;;;;;2.98;62.44;101717.06;1789908;79;21093;-62
2022/02/27 02:35:28;;;;;;;11.38;4.45;;;;;;;2.92;62.56;101718.88;1776596;79;21506;-63
2022/02/27 02:37:57;;;;;;;12.70;5.10;;;;;;;2.86;62.74;101719.72;1787042;79;21102;-62
2022/02/27 02:40:26;;;;;;;13.75;5.08;;;;;;;2.84;62.92;101720.33;1791105;78;21046;-62
2022/02/27 02:42:57;;;;;;;16.80;6.12;;;;;;;2.83;62.97;101728.08;1797953;78;21039;-61
2022/02/27 02:45:27;;;;;;;13.10;5.05;;;;;;;2.83;63.12;101725.86;1800062;79;21451;-62
2022/02/27 02:47:59;;;;;;;20.30;8.08;;;;;;;2.82;63.27;101726.34;1791081;78;21027;-61
2022/02/27 02:50:29;;;;;;;20.52;8.93;;;;;;;2.86;63.34;101732.39;1796598;78;21476;-61
2022/02/27 02:52:59;;;;;;;20.15;8.55;;;;;;;2.85;63.39;101732.88;1786590;80;21559;-62
2022/02/27 02:55:29;;;;;;;17.57;7.20;;;;;;;2.84;63.50;101731.16;1788985;78;21018;-62
2022/02/27 02:58:00;;;;;;;19.12;7.62;;;;;;;2.84;63.45;101725.73;1791236;78;21050;-63
2022/02/27 03:00:29;;;;;;;16.67;6.97;;;;;;;2.82;63.56;101729.05;1803635;79;21437;-61
2022/02/27 03:02:58;;;;;;;16.95;6.85;;;;;;;2.79;63.63;101736.05;1797371;79;22036;-62
2022/02/27 03:05:28;;;;;;;19.17;7.05;;;;;;;2.79;63.73;101733.34;1785336;78;21478;-61
2022/02/27 03:07:57;;;;;;;14.35;6.45;;;;;;;2.82;63.78;101745.78;1793481;78;21196;-63
2022/02/27 03:10:27;;;;;;;14.75;5.60;;;;;;;2.82;63.79;101737.17;1785644;78;21062;-62
2022/02/27 03:12:56;;;;;;;16.07;5.42;;;;;;;2.84;63.81;101743.83;1804292;79;21062;-63
2022/02/27 03:15:25;;;;;;;15.60;5.80;;;;;;;2.82;63.89;101740.38;1788386;78;21018;-62
2022/02/27 03:17:53;;;;;;;14.53;6.00;;;;;;;2.83;63.98;101743.45;1786572;78;21749;-62
2022/02/27 03:20:22;;;;;;;14.85;6.17;;;;;;;2.84;64.02;101743.83;1784514;78;21082;-61
2022/02/27 03:22:50;;;;;;;15.10;6.35;;;;;;;2.83;64.08;101751.08;1775175;79;21522;-61
2022/02/27 03:25:19;;;;;;;14.43;6.50;;;;;;;2.85;64.10;101749.61;1772417;79;21039;-62
2022/02/27 03:27:48;;;;;;;15.85;6.55;;;;;;;2.86;64.12;101752.20;1790563;78;21145;-63
2022/02/27 03:30:16;;;;;;;14.65;6.53;;;;;;;2.89;64.07;101752.95;1782329;78;21073;-62
2022/02/27 03:32:48;;;;;;;18.85;6.50;;;;;;;2.90;64.09;101750.62;1785550;78;21549;-63
2022/02/27 03:35:17;;;;;;;20.10;7.83;;;;;;;2.90;64.08;101754.19;1785523;78;21568;-60
2022/02/27 03:37:50;;;;;;;19.80;8.23;;;;;;;2.90;64.02;101756.03;1777978;79;21573;-61
2022/02/27 03:40:18;;;;;;;19.02;8.43;;;;;;;2.90;64.04;101753.33;1785396;78;21188;-61
2022/02/27 03:42:47;;;;;;;22.32;8.40;;;;;;;2.87;64.05;101758.48;1810333;79;21471;-62
2022/02/27 03:45:15;;;;;;;26.33;8.20;;;;;;;2.85;64.06;101755.89;1772723;79;21102;-62
2022/02/27 03:47:44;;;;;;;19.15;7.67;;;;;;;2.85;64.15;101760.44;1781780;79;21082;-62
2022/02/27 03:50:14;;;;;;;20.20;7.45;;;;;;;2.89;64.10;101763.78;1749719;80;21150;-62
2022/02/27 03:52:43;;;;;;;19.62;6.83;;;;;;;2.92;64.07;101771.67;1775588;79;21188;-62
2022/02/27 03:55:14;;;;;;;17.45;6.78;;;;;;;2.94;63.98;101772.42;1783061;80;22205;-61
2022/02/27 03:57:42;;;;;;;17.90;6.87;;;;;;;2.94;63.89;101771.93;1797875;79;21559;-61
2022/02/27 04:00:15;;;;;;;14.80;5.95;;;;;;;2.94;63.84;101772.42;1790712;79;21497;-62
2022/02/27 04:02:47;;;;;;;15.83;6.50;;;;;;;2.95;63.77;101771.44;1783968;78;21351;-61
2022/02/27 04:05:18;;;;;;;16.40;7.08;;;;;;;2.94;63.68;101769.23;1788924;78;21505;-62
2022/02/27 04:07:46;;;;;;;15.03;5.62;;;;;;;2.98;63.66;101782.05;1781233;79;21110;-63
2022/02/27 04:10:15;;;;;;;14.38;6.58;;;;;;;3.00;63.60;101779.59;1783475;79;21194;-61
2022/02/27 04:12:44;;;;;;;10.05;4.62;;;;;;;3.04;63.43;101780.23;1806646;78;21442;-61
2022/02/27 04:15:12;;;;;;;10.85;3.72;;;;;;;3.06;63.22;101783.69;1774112;79;22141;-62
2022/02/27 04:17:41;;;;;;;10.18;3.37;;;;;;;3.08;62.99;101785.78;1785720;80;21122;-61
2022/02/27 04:20:10;;;;;;;6.20;2.80;;;;;;;3.08;62.88;101788.50;1793722;78;21069;-61
2022/02/27 04:22:39;;;;;;;6.60;2.52;;;;;;;3.11;62.66;101793.68;1783990;78;21188;-61
2022/02/27 04:25:08;;;;;;;4.55;1.90;;;;;;;3.14;62.49;101797.52;1790816;78;21012;-61
2022/02/27 04:27:37;;;;;;;5.05;2.30;;;;;;;3.17;62.35;101798.64;1795854;79;21012;-63
2022/02/27 04:30:07;;;;;;;7.12;2.42;;;;;;;3.19;62.21;101798.03;1784032;78;21149;-63
2022/02/27 04:32:36;;;;;;;6.62;2.37;;;;;;;3.21;62.11;101800.62;1782288;78;21522;-62
2022/02/27 04:35:09;;;;;;;5.95;2.42;;;;;;;3.24;62.05;101798.55;1773499;79;21474;-62
2022/02/27 04:37:38;;;;;;;9.90;2.75;;;;;;;3.26;61.94;101801.17;1757437;80;21083;-62
2022/02/27 04:40:08;;;;;;;5.05;2.22;;;;;;;3.24;61.88;101801.25;1781682;79;21058;-61
2022/02/27 04:42:36;;;;;;;4.65;2.27;;;;;;;3.26;61.90;101808.80;1782050;79;21333;-62
2022/02/27 04:45:07;;;;;;;8.05;2.20;;;;;;;3.28;61.93;101806.84;1740919;82;21056;-63
2022/02/27 04:47:36;;;;;;;7.55;2.25;;;;;;;3.29;61.90;101807.71;1750659;80;21507;-61
2022/02/27 04:50:05;;;;;;;9.23;3.17;;;;;;;3.30;61.91;101814.37;1790888;78;21050;-62
2022/02/27 04:52:35;;;;;;;6.90;2.60;;;;;;;3.30;61.86;101807.59;1807873;78;21086;-61
2022/02/27 04:55:04;;;;;;;6.97;2.35;;;;;;;3.30;61.83;101806.23;1791395;78;21102;-62
2022/02/27 04:57:35;;;;;;;5.30;2.17;;;;;;;3.30;61.82;101809.44;1805381;78;21031;-64
2022/02/27 05:00:07;;;;;;;4.08;2.00;;;;;;;3.30;61.79;101818.92;1790430;78;21039;-63
2022/02/27 05:02:37;;;;;;;4.92;2.12;;;;;;;3.29;61.79;101818.05;1799502;78;21188;-61
2022/02/27 05:05:08;;;;;;;5.33;2.22;;;;;;;3.31;61.77;101813.38;1788891;78;21024;-62
2022/02/27 05:07:38;;;;;;;7.47;2.77;;;;;;;3.34;61.70;101813.64;1770953;79;21102;-62
2022/02/27 05:10:08;;;;;;;6.40;2.87;;;;;;;3.35;61.65;101821.65;1783556;78;21533;-61
2022/02/27 05:12:38;;;;;;;4.95;2.37;;;;;;;3.36;61.61;101815.75;1774983;79;21221;-61
2022/02/27 05:15:09;;;;;;;8.93;2.87;;;;;;;3.36;61.55;101813.90;1808828;79;21073;-62
2022/02/27 05:17:39;;;;;;;6.70;2.58;;;;;;;3.36;61.56;101815.25;1794636;79;21054;-61
2022/02/27 05:20:10;;;;;;;5.97;2.67;;;;;;;3.35;61.60;101812.17;1801119;78;21468;-62
2022/02/27 05:22:46;;;;;;;6.60;2.20;;;;;;;3.37;61.58;101811.56;1789873;78;21023;-61
2022/02/27 05:25:17;;;;;;;5.50;2.02;;;;;;;3.37;61.49;101808.86;1796624;78;21003;-63
2022/02/27 05:27:46;;;;;;;9.55;2.60;;;;;;;3.38;61.47;101810.58;1786721;78;21038;-62
2022/02/27 05:30:14;;;;;;;5.55;2.25;;;;;;;3.40;61.33;101803.69;1792006;78;21138;-61
2022/02/27 05:32:43;;;;;;;7.50;2.00;;;;;;;3.42;61.23;101818.84;1792892;78;21082;-62
2022/02/27 05:35:12;;;;;;;3.60;1.90;;;;;;;3.44;61.14;101810.61;1784972;78;21490;-62
2022/02/27 05:37:42;;;;;;;5.92;2.10;;;;;;;3.45;60.92;101816.40;1783765;78;21063;-61
2022/02/27 05:40:13;;;;;;;5.62;2.05;;;;;;;3.46;60.83;101816.28;1784528;78;21144;-62
2022/02/27 05:42:41;;;;;;;8.35;2.30;;;;;;;3.47;60.59;101811.23;1800645;79;21561;-61
2022/02/27 05:45:11;;;;;;;4.80;1.87;;;;;;;3.46;60.49;101814.06;1798698;78;21008;-62
2022/02/27 05:47:40;;;;;;;5.33;2.15;;;;;;;3.46;60.41;101808.64;1785945;78;21063;-61
2022/02/27 05:50:09;;;;;;;5.47;2.12;;;;;;;3.45;60.47;101815.91;1801918;79;21573;-61
2022/02/27 05:52:37;;;;;;;5.28;1.98;;;;;;;3.48;60.32;101823.80;1784990;78;21069;-62
2022/02/27 05:55:07;;;;;;;4.60;1.82;;;;;;;3.51;60.12;101817.28;1776780;79;21205;-62
2022/02/27 05:57:36;;;;;;;5.85;2.08;;;;;;;3.53;60.00;101819.38;1781335;79;21112;-63
2022/02/27 06:00:06;;;;;;;5.03;1.90;;;;;;;3.55;59.78;101821.98;1774092;79;21032;-63
2022/02/27 06:02:35;;;;;;;5.85;2.30;;;;;;;3.56;59.73;101822.34;1775999;79;21054;-62
2022/02/27 06:05:07;;;;;;;5.40;2.10;;;;;;;3.55;59.63;101820.13;1782140;79;21078;-62
2022/02/27 06:07:36;;;;;;;4.30;1.85;;;;;;;3.58;59.35;101815.83;1780848;79;21042;-63
2022/02/27 06:10:06;;;;;;;6.17;2.00;;;;;;;3.57;59.11;101824.08;1791651;78;21205;-62
2022/02/27 06:12:35;;;;;;;5.70;1.98;;;;;;;3.57;59.01;101829.50;1796645;78;21047;-62
2022/02/27 06:15:07;;;;;;;3.90;1.77;;;;;;;3.59;58.87;101830.25;1790642;78;21583;-62
2022/02/27 06:17:36;;;;;;;6.08;2.10;;;;;;;3.58;58.78;101833.45;1790469;78;21544;-63
2022/02/27 06:20:08;;;;;;;6.47;2.20;;;;;;;3.61;58.79;101833.70;1783790;78;21477;-62
2022/02/27 06:22:42;;;;;;;5.12;1.90;;;;;;;3.63;58.64;101833.09;1791312;78;21023;-62
2022/02/27 06:25:11;;;;;;;5.20;1.80;;;;;;;3.66;58.53;101831.01;1784894;78;21066;-62
2022/02/27 06:27:43;;;;;;;6.78;2.33;;;;;;;3.69;58.44;101836.20;1784051;78;21073;-62
2022/02/27 06:30:19;;;;;;;3.37;1.82;;;;;;;3.73;58.40;101837.69;1773058;79;21053;-61
2022/02/27 06:32:50;;;;;;;3.95;1.85;;;;;;;3.76;57.93;101837.45;1773710;79;21125;-64
2022/02/27 06:35:21;;;;;;;4.83;2.00;;;;;;;3.77;58.01;101831.53;1775639;79;21052;-61
2022/02/27 06:37:52;;;;;;;6.08;1.90;;;;;;;3.81;57.93;101837.09;1789710;78;21042;-63
2022/02/27 06:40:21;;;;;;;5.05;2.00;;;;;;;3.82;57.35;101834.27;1793002;78;21153;-62
2022/02/27 06:42:49;;;;;;;4.85;1.85;;;;;;;3.83;57.34;101833.77;1796512;79;20992;-62
2022/02/27 06:45:18;;;;;;;4.40;1.85;;;;;;;3.85;57.17;101837.23;1783716;79;21046;-62
2022/02/27 06:47:47;;;;;;;5.00;1.72;;;;;;;3.87;56.80;101836.61;1791915;78;21110;-61
2022/02/27 06:50:16;;;;;;;3.52;1.55;;;;;;;3.90;56.55;101840.94;1770636;79;21517;-62
2022/02/27 06:52:44;;;;;;;5.67;1.87;;;;;;;3.96;56.45;101845.42;1773913;79;21051;-63
2022/02/27 06:55:15;;;;;;;4.67;1.90;;;;;;;3.98;56.01;101840.74;1776045;79;21109;-62
2022/02/27 06:57:45;;;;;;;4.75;2.02;;;;;;;4.01;56.05;101843.70;1777415;79;21050;-62
2022/02/27 07:00:15;;;;;;;4.05;1.75;;;;;;;4.05;55.81;101843.84;1776362;79;21082;-61
2022/02/27 07:02:45;;;;;;;6.75;1.92;;;;;;;4.09;55.76;101846.68;1786027;78;21042;-62
2022/02/27 07:05:14;;;;;;;6.53;1.85;;;;;;;4.13;55.29;101847.67;1776558;79;21205;-62
2022/02/27 07:07:44;;;;;;;4.50;1.70;;;;;;;4.17;54.90;101844.72;1776571;79;21201;-62
2022/02/27 07:10:17;;;;;;;5.45;1.62;;;;;;;4.21;54.72;101846.20;1780608;79;21062;-62
2022/02/27 07:12:47;;;;;;;4.70;1.90;;;;;;;4.23;54.39;101843.74;1749347;80;21019;-62
2022/02/27 07:15:16;;;;;;;3.87;1.80;;;;;;;4.23;54.19;101845.59;1786754;79;21135;-62
2022/02/27 07:17:45;;;;;;;4.92;1.98;;;;;;;4.22;53.92;101848.80;1791779;78;21160;-62
2022/02/27 07:20:14;;;;;;;5.72;1.92;;;;;;;4.25;54.02;101843.63;1782042;78;21026;-61
2022/02/27 07:22:43;;;;;;;4.97;1.80;;;;;;;4.28;53.66;101842.88;1775894;79;21639;-63
2022/02/27 07:25:12;;;;;;;6.28;2.00;;;;;;;4.29;53.59;101841.90;1774926;79;21075;-62
2022/02/27 07:27:41;;;;;;;3.83;1.70;;;;;;;4.31;53.51;101846.71;1751366;80;21047;-62
2022/02/27 07:30:11;;;;;;;4.75;2.10;;;;;;;4.35;52.86;101844.13;1782836;79;21093;-62
2022/02/27 07:32:40;;;;;;;3.98;1.70;;;;;;;4.39;52.60;101848.81;1789869;80;21056;-62
2022/02/27 07:35:09;;;;;;;5.45;2.20;;;;;;;4.45;52.48;101849.19;1789318;80;21117;-62
2022/02/27 07:37:38;;;;;;;3.98;1.52;;;;;;;4.52;52.32;101842.77;1795279;78;21077;-62
2022/02/27 07:40:08;;;;;;;3.58;1.57;;;;;;;4.61;51.96;101836.64;1784021;78;21158;-62
2022/02/27 07:42:37;;;;;;;6.33;1.90;;;;;;;4.69;51.45;101842.31;1805624;79;21059;-63
2022/02/27 07:45:09;;;;;;;4.45;1.42;;;;;;;4.77;50.88;101842.55;1725328;82;21062;-63
2022/02/27 07:47:38;;;;;;;5.42;2.00;;;;;;;4.84;50.15;101842.05;1722400;82;21042;-63
2022/02/27 07:50:08;;;;;;;5.25;2.20;;;;;;;4.91;50.10;101841.91;1726829;82;21114;-61
2022/02/27 07:52:36;;;;;;;5.10;1.80;;;;;;;5.00;49.28;101839.80;1718620;83;21057;-62
2022/02/27 07:55:07;;;;;;;4.50;1.70;;;;;;;5.03;48.90;101836.33;1713595;83;21197;-63
2022/02/27 07:57:35;;;;;;;3.22;1.52;;;;;;;5.08;49.10;101835.45;1718210;82;21061;-63
2022/02/27 08:00:06;;;;;;;3.20;1.50;;;;;;;5.18;48.68;101839.63;1729674;82;21197;-62
2022/02/27 08:02:36;;;;;;;5.42;1.70;;;;;;;5.25;47.92;101838.66;1747096;79;21001;-62
2022/02/27 08:05:06;;;;;;;3.98;1.62;;;;;;;5.31;47.55;101837.65;1779553;79;21158;-64
2022/02/27 08:07:37;;;;;;;4.92;1.27;;;;;;;5.36;47.08;101839.48;1789530;79;21078;-68
2022/02/27 08:10:07;;;;;;;4.92;1.40;;;;;;;5.43;47.28;101834.89;1793340;78;21018;-62
2022/02/27 08:12:43;;;;;;;2.42;1.25;;;;;;;5.51;46.72;101834.61;1768034;79;21024;-63
2022/02/27 08:15:18;;;;;;;2.58;1.00;;;;;;;5.63;46.64;101833.56;1789827;78;21074;-63
2022/02/27 08:17:51;;;;;;;3.95;1.20;;;;;;;5.80;45.75;101838.06;1737385;78;21164;-62
2022/02/27 08:20:22;;;;;;;2.52;0.93;;;;;;;5.92;45.18;101833.84;1784789;79;21516;-62
2022/02/27 08:22:53;;;;;;;1.62;0.80;;;;;;;6.10;43.74;101833.25;1792384;78;21479;-63
2022/02/27 08:25:25;;;;;;;3.00;1.05;;;;;;;6.25;42.89;101831.91;1766704;79;21053;-62
2022/02/27 08:27:55;;;;;;;2.12;0.60;;;;;;;6.39;42.86;101832.05;1765872;79;21275;-62
2022/02/27 08:30:28;;;;;;;1.52;0.80;;;;;;;6.56;42.52;101826.86;1785196;78;21083;-60
2022/02/27 08:33:03;;;;;;;1.15;0.60;;;;;;;6.70;41.63;101826.13;1760024;79;21019;-63
2022/02/27 08:35:39;;;;;;;1.32;0.50;;;;;;;6.76;41.52;101826.44;1789707;79;21134;-65
2022/02/27 08:38:09;;;;;;;1.30;0.55;;;;;;;6.85;40.27;101824.23;1773359;79;21055;-64
2022/02/27 08:40:42;;;;;;;2.20;0.70;;;;;;;6.90;40.09;101819.73;1764460;80;21563;-62
2022/02/27 08:43:10;;;;;;;1.25;0.50;;;;;;;6.97;39.92;101825.85;1781252;79;21093;-61
2022/02/27 08:45:41;;;;;;;0.82;0.50;;;;;;;7.05;39.60;101823.79;1775733;80;21098;-62
2022/02/27 08:48:13;;;;;;;0.55;0.45;;;;;;;7.12;38.84;101826.81;1720931;82;21062;-62
2022/02/27 08:50:42;;;;;;;1.40;0.50;;;;;;;7.12;39.29;101824.09;1709675;83;21074;-61
2022/02/27 08:53:12;;;;;;;1.00;0.40;;;;;;;7.09;39.01;101821.64;1713546;83;21058;-61
2022/02/27 08:55:43;;;;;;;1.27;0.60;;;;;;;7.00;38.81;101828.80;1721405;82;21042;-61
2022/02/27 08:58:11;;;;;;;1.10;0.40;;;;;;;6.92;39.12;101819.95;1727953;82;21105;-62
2022/02/27 09:00:42;;;;;;;1.85;0.60;;;;;;;6.89;39.52;101822.96;1731685;82;21169;-63
2022/02/27 09:03:17;;;;;;;1.85;0.70;;;;;;;6.88;39.75;101819.87;1718869;82;21069;-63
2022/02/27 09:05:47;;;;;;;1.90;0.40;;;;;;;6.91;39.39;101814.15;1695804;82;21157;-62
2022/02/27 09:08:17;;;;;;;2.08;0.47;;;;;;;6.94;39.25;101819.82;1693711;82;21218;-62
2022/02/27 09:10:50;;;;;;;3.22;0.60;;;;;;;6.97;39.54;101822.27;1720397;82;21593;-61
2022/02/27 09:13:20;;;;;;;1.02;0.50;;;;;;;6.94;39.64;101816.59;1740302;79;21204;-63
2022/02/27 09:15:53;;;;;;;1.92;0.60;;;;;;;6.91;39.21;101816.02;1715900;82;21120;-62
2022/02/27 09:18:26;;;;;;;2.72;0.60;;;;;;;6.82;38.97;101815.48;1699182;82;21075;-62
2022/02/27 09:20:54;;;;;;;1.77;0.40;;;;;;;6.77;38.56;101812.31;1733317;82;21561;-62
2022/02/27 09:23:25;;;;;;;0.80;0.53;;;;;;;6.64;38.81;101809.34;1708440;82;21149;-62
2022/02/27 09:25:53;;;;;;;1.27;0.57;;;;;;;6.53;39.52;101816.23;1720615;83;21573;-63
2022/02/27 09:28:25;;;;;;;1.67;0.50;;;;;;;6.51;39.39;101820.96;1715137;82;21132;-63
2022/02/27 09:30:55;;;;;;;1.12;0.40;;;;;;;6.51;38.60;101820.96;1723016;82;21122;-63
2022/02/27 09:33:27;;;;;;;0.93;0.40;;;;;;;6.54;38.45;101814.38;1723106;79;21078;-63
2022/02/27 09:35:57;;;;;;;1.37;0.30;;;;;;;6.48;37.80;101808.09;1786494;79;21353;-61
2022/02/27 09:38:27;;;;;;;1.75;0.33;;;;;;;6.40;37.74;101812.86;1785542;78;21049;-63
2022/02/27 09:40:58;;;;;;;1.00;0.40;;;;;;;6.36;38.09;101816.84;1727897;78;21554;-62
2022/02/27 09:43:32;;;;;;;1.30;0.47;;;;;;;6.40;38.19;101811.49;1752710;80;21159;-62
2022/02/27 09:46:01;;;;;;;0.90;0.40;;;;;;;6.43;37.70;101805.77;1801083;79;21540;-62
2022/02/27 09:48:29;;;;;;;1.37;0.30;;;;;;;6.37;37.84;101818.57;1788881;79;21506;-63
2022/02/27 09:50:59;;;;;;;2.37;0.40;;;;;;;6.36;37.97;101810.04;1775839;79;21082;-63
2022/02/27 09:53:30;;;;;;;1.17;0.40;;;;;;;6.39;37.70;101812.99;1777326;79;21550;-62
2022/02/27 09:55:59;;;;;;;0.55;0.40;;;;;;;6.39;37.54;101808.91;1776948;79;21522;-63
2022/02/27 09:58:28;;;;;;;0.85;0.50;;;;;;;6.37;37.67;101810.41;1775879;79;21471;-62
2022/02/27 10:00:58;;;;;;;1.10;0.40;;;;;;;6.39;37.88;101804.33;1783907;79;21051;-63
2022/02/27 10:03:30;;;;;;;1.35;0.42;;;;;;;6.40;37.87;101799.23;1794241;78;21102;-62
2022/02/27 10:06:07;;;;;;;2.98;0.37;;;;;;;6.43;37.79;101798.11;1812043;79;21086;-62
2022/02/27 10:08:48;;;;;;;1.57;0.53;;;;;;;6.43;37.55;101807.64;1793139;78;21081;-63
2022/02/27 10:11:18;;;;;;;1.52;0.75;;;;;;;6.38;37.66;101801.73;1787357;78;21498;-63
2022/02/27 10:13:51;;;;;;;0.60;0.40;;;;;;;6.39;37.92;101802.96;1810764;79;21082;-62
2022/02/27 10:16:24;;;;;;;2.25;0.70;;;;;;;6.39;38.01;101807.55;1799798;78;21066;-62
2022/02/27 10:19:00;;;;;;;1.30;0.55;;;;;;;6.40;37.82;101805.19;1791068;78;21078;-62
2022/02/27 10:21:39;;;;;;;2.08;0.47;;;;;;;6.43;37.73;101796.75;1787660;79;21031;-63
2022/02/27 10:24:12;;;;;;;1.10;0.30;;;;;;;6.46;37.57;101793.25;1780078;78;21597;-63
2022/02/27 10:26:44;;;;;;;1.75;0.40;;;;;;;6.46;37.98;101793.25;1787101;79;21078;-64
2022/02/27 10:29:25;;;;;;;1.25;0.30;;;;;;;6.50;37.84;101785.67;1789829;78;21078;-63
2022/02/27 10:31:56;;;;;;;0.42;0.30;;;;;;;6.58;37.95;101788.09;1771417;79;21094;-63
2022/02/27 10:34:37;;;;;;;1.05;0.50;;;;;;;6.61;37.82;101788.32;1730823;80;21051;-63
2022/02/27 10:37:15;;;;;;;1.02;0.50;;;;;;;6.65;37.50;101781.59;1778421;79;21118;-64
2022/02/27 10:39:51;;;;;;;1.10;0.60;;;;;;;6.65;37.67;101777.52;1788784;79;21510;-62
2022/02/27 10:42:34;;;;;;;1.62;0.60;;;;;;;6.61;37.65;101784.23;1761883;80;21052;-62
2022/02/27 10:45:06;;;;;;;1.67;0.60;;;;;;;6.63;37.78;101783.09;1753408;80;21141;-62
2022/02/27 10:47:37;;;;;;;1.15;0.40;;;;;;;6.67;37.79;101791.86;1755582;79;21021;-62
2022/02/27 10:50:10;;;;;;;0.90;0.55;;;;;;;6.68;37.79;101791.72;1797193;78;21093;-62
2022/02/27 10:52:46;;;;;;;1.98;0.60;;;;;;;6.65;37.76;101782.95;1804565;78;21058;-63
2022/02/27 10:55:16;;;;;;;0.85;0.60;;;;;;;6.64;37.82;101775.29;1781236;79;21135;-64
2022/02/27 10:57:47;;;;;;;1.30;0.50;;;;;;;6.63;38.08;101774.92;1776997;79;21070;-62
2022/02/27 11:00:28;;;;;;;1.00;0.50;;;;;;;6.57;37.83;101776.84;1774649;79;21017;-63
2022/02/27 11:03:01;;;;;;;3.30;0.70;;;;;;;6.53;38.06;101787.65;1775857;79;21509;-62
2022/02/27 11:05:34;;;;;;;1.70;0.50;;;;;;;6.46;38.23;101778.27;1780854;80;21478;-64
2022/02/27 11:08:05;;;;;;;1.30;0.53;;;;;;;6.37;38.10;101780.45;1756630;80;21122;-63
2022/02/27 11:10:38;;;;;;;0.68;0.30;;;;;;;6.33;38.43;101780.37;1795286;79;21049;-63
2022/02/27 11:13:10;;;;;;;1.35;0.60;;;;;;;6.29;38.58;101768.89;1780018;79;21026;-62
2022/02/27 11:15:39;;;;;;;1.87;0.60;;;;;;;6.25;38.60;101763.36;1775224;79;21062;-62
2022/02/27 11:18:08;;;;;;;2.47;0.57;;;;;;;6.14;38.73;101772.98;1775052;79;21598;-64
2022/02/27 11:20:40;;;;;;;0.70;0.55;;;;;;;6.08;39.04;101765.85;1799891;79;21019;-64
2022/02/27 11:23:08;;;;;;;1.55;0.60;;;;;;;6.08;39.17;101760.41;1789064;78;21138;-64
2022/02/27 11:25:37;;;;;;;1.80;0.50;;;;;;;6.10;38.63;101756.55;1770227;79;21547;-64
2022/02/27 11:28:12;;;;;;;1.60;0.60;;;;;;;6.08;38.25;101754.47;1789530;78;21137;-64
2022/02/27 11:30:43;;;;;;;1.02;0.55;;;;;;;6.09;38.58;101753.97;1788639;78;21188;-64
2022/02/27 11:33:21;;;;;;;1.57;0.60;;;;;;;6.13;38.76;101757.64;1790733;78;21117;-62
2022/02/27 11:35:57;;;;;;;1.15;0.68;;;;;;;6.12;38.38;101761.36;1792491;78;21459;-63
2022/02/27 11:38:37;;;;;;;0.85;0.45;;;;;;;6.12;38.24;101761.86;1806879;79;21137;-62
2022/02/27 11:41:14;;;;;;;1.90;0.60;;;;;;;6.09;38.14;101753.47;1792973;78;21073;-62
2022/02/27 11:43:53;;;;;;;2.00;0.50;;;;;;;6.07;38.37;101754.61;1782981;78;21181;-63
2022/02/27 11:46:35;;;;;;;1.02;0.40;;;;;;;6.03;38.35;101754.02;1787395;79;21509;-63
2022/02/27 11:49:20;;;;;;;2.10;0.40;;;;;;;6.00;38.18;101750.20;1779107;79;21289;-62